Impacts METAR Board INFO
IDs:

KMCO - Orlando Intl, FL, US

Updated at: 1512 UTC 21 Feb 2018
Potential Impact None Slight Moderate High
Time21/03Z 21/04Z 21/05Z 21/06Z 21/07Z 21/08Z 21/09Z 21/10Z 21/11Z 21/12Z 21/13Z 21/14Z 21/15Z
VIS 8 10 9
CIG -- -- --
CoverFEWFEWSCT
FltCatVFRVFRVFR
WX------
WDir80100120
WSpd 5 9 10
WGst -- -- --
Raw hourly METARs










KMCO 211253Z 08005KT 8SM FEW010 21/21 A3040 RMK AO2 SLP292 T02110211
KMCO 211353Z 10009KT 10SM FEW008 23/22 A3041 RMK AO2 SLP295 T02330222
KMCO 201453Z 12010KT 9SM SCT019 26/20 A3036 RMK AO2 SLP280 T02560200 51015